createdAt,value
2023-10-27T00:00:06.899Z,996.94
2023-10-27T00:00:27.888Z,996.94
2023-10-27T00:00:48.551Z,996.93
2023-10-27T00:01:09.060Z,996.95
2023-10-27T00:01:29.505Z,996.95
2023-10-27T00:01:50.496Z,996.97
2023-10-27T00:02:11.598Z,997.00
2023-10-27T00:02:32.012Z,997.00
2023-10-27T00:02:52.983Z,997.02
2023-10-27T00:03:13.944Z,997.04
2023-10-27T00:03:34.901Z,997.04
2023-10-27T00:03:56.034Z,997.05
2023-10-27T00:04:16.729Z,997.05
2023-10-27T00:04:37.394Z,997.04
2023-10-27T00:04:57.830Z,997.07
2023-10-27T00:05:18.778Z,997.08
2023-10-27T00:05:39.927Z,997.08
2023-10-27T00:06:00.382Z,997.09
2023-10-27T00:06:20.866Z,997.10
2023-10-27T00:06:41.865Z,997.09
2023-10-27T00:07:02.337Z,997.09
2023-10-27T00:07:23.273Z,997.10
2023-10-27T00:07:44.266Z,997.10
2023-10-27T00:08:04.778Z,997.11
2023-10-27T00:08:25.273Z,997.11
2023-10-27T00:08:45.861Z,997.12
2023-10-27T00:09:06.299Z,997.12
2023-10-27T00:09:26.801Z,997.14
2023-10-27T00:09:47.929Z,997.15
2023-10-27T00:10:08.503Z,997.16
2023-10-27T00:10:29.051Z,997.15
2023-10-27T00:10:49.603Z,997.15
2023-10-27T00:11:10.609Z,997.16
2023-10-27T00:11:31.024Z,997.15
2023-10-27T00:11:51.988Z,997.16
2023-10-27T00:12:12.960Z,997.17
2023-10-27T00:12:33.933Z,997.16
2023-10-27T00:12:55.017Z,997.18
2023-10-27T00:13:15.595Z,997.17
2023-10-27T00:13:36.139Z,997.18
2023-10-27T00:13:57.066Z,997.16
2023-10-27T00:14:17.601Z,997.18
2023-10-27T00:14:38.651Z,997.17
2023-10-27T00:14:59.099Z,997.17
2023-10-27T00:15:20.082Z,997.15
2023-10-27T00:15:41.093Z,997.14
2023-10-27T00:16:01.647Z,997.14
2023-10-27T00:16:22.161Z,997.13
2023-10-27T00:16:42.657Z,997.13
2023-10-27T00:17:03.648Z,997.14
2023-10-27T00:17:24.079Z,997.14
2023-10-27T00:17:45.081Z,997.14
2023-10-27T00:18:06.103Z,997.14
2023-10-27T00:18:26.619Z,997.13
2023-10-27T00:18:47.108Z,997.12
2023-10-27T00:19:08.165Z,997.12
2023-10-27T00:19:28.881Z,997.12
2023-10-27T00:19:49.309Z,997.13
2023-10-27T00:20:10.342Z,997.12
2023-10-27T00:20:30.874Z,997.12
2023-10-27T00:20:51.796Z,997.13
2023-10-27T00:21:12.928Z,997.13
2023-10-27T00:21:33.361Z,997.14
2023-10-27T00:21:54.478Z,997.15
2023-10-27T00:22:15.051Z,997.16
2023-10-27T00:22:35.608Z,997.15
2023-10-27T00:22:56.055Z,997.15
2023-10-27T00:23:17.087Z,997.18
2023-10-27T00:23:38.045Z,997.18
2023-10-27T00:23:59.042Z,997.18
2023-10-27T00:24:20.046Z,997.19
2023-10-27T00:24:40.681Z,997.19
2023-10-27T00:25:01.295Z,997.19
2023-10-27T00:25:21.803Z,997.21
2023-10-27T00:25:42.224Z,997.21
2023-10-27T00:26:03.397Z,997.21
2023-10-27T00:26:24.011Z,997.22
2023-10-27T00:26:44.370Z,997.23
2023-10-27T00:27:05.375Z,997.23
2023-10-27T00:27:26.407Z,997.25
2023-10-27T00:27:46.981Z,997.25
2023-10-27T00:28:07.604Z,997.24
2023-10-27T00:28:28.128Z,997.25
2023-10-27T00:28:48.717Z,997.25
2023-10-27T00:29:09.165Z,997.24
2023-10-27T00:29:30.179Z,997.25
2023-10-27T00:29:50.797Z,997.26
2023-10-27T00:30:11.246Z,997.26
2023-10-27T00:30:31.936Z,997.23
2023-10-27T00:30:52.397Z,997.24
2023-10-27T00:31:14.685Z,997.24
2023-10-27T00:31:34.199Z,997.24
2023-10-27T00:31:55.210Z,997.26
2023-10-27T00:32:16.129Z,997.27
2023-10-27T00:32:37.255Z,997.27
2023-10-27T00:32:57.789Z,997.29
2023-10-27T00:33:18.336Z,997.30
2023-10-27T00:33:38.808Z,997.31
2023-10-27T00:33:59.856Z,997.34
2023-10-27T00:34:20.561Z,997.35
2023-10-27T00:34:41.322Z,997.35
2023-10-27T00:35:01.868Z,997.35
2023-10-27T00:35:22.886Z,997.36
2023-10-27T00:35:43.367Z,997.35
2023-10-27T00:36:04.340Z,997.35
2023-10-27T00:36:24.887Z,997.35
2023-10-27T00:36:45.885Z,997.39
2023-10-27T00:37:06.483Z,997.38
2023-10-27T00:37:26.951Z,997.36
2023-10-27T00:37:47.891Z,997.36
2023-10-27T00:38:08.937Z,997.35
2023-10-27T00:38:29.427Z,997.34
2023-10-27T00:38:50.015Z,997.31
2023-10-27T00:39:10.473Z,997.32
2023-10-27T00:39:30.974Z,997.31
2023-10-27T00:39:51.504Z,997.31
2023-10-27T00:40:12.049Z,997.31
2023-10-27T00:40:32.650Z,997.32
2023-10-27T00:40:53.651Z,997.30
2023-10-27T00:41:14.376Z,997.30
2023-10-27T00:41:34.707Z,997.32
2023-10-27T00:41:55.682Z,997.31
2023-10-27T00:42:16.715Z,997.34
2023-10-27T00:42:38.635Z,997.34
2023-10-27T00:42:59.246Z,997.34
2023-10-27T00:43:19.501Z,997.33
2023-10-27T00:43:40.271Z,997.34
2023-10-27T00:44:00.826Z,997.35
2023-10-27T00:44:21.707Z,997.37
2023-10-27T00:44:42.152Z,997.36
2023-10-27T00:45:03.242Z,997.37
2023-10-27T00:45:23.757Z,997.37
2023-10-27T00:45:44.724Z,997.39
2023-10-27T00:46:05.262Z,997.40
2023-10-27T00:46:26.313Z,997.38
2023-10-27T00:46:46.545Z,997.40
2023-10-27T00:47:07.123Z,997.39
2023-10-27T00:47:27.820Z,997.38
2023-10-27T00:47:48.995Z,997.38
2023-10-27T00:48:09.217Z,997.37
2023-10-27T00:48:29.737Z,997.36
2023-10-27T00:48:50.524Z,997.37
2023-10-27T00:49:11.064Z,997.37
2023-10-27T00:49:31.677Z,997.36
2023-10-27T00:49:52.393Z,997.38
2023-10-27T00:50:12.984Z,997.38
2023-10-27T00:50:33.500Z,997.38
2023-10-27T00:50:53.954Z,997.38
2023-10-27T00:51:14.925Z,997.38
2023-10-27T00:51:36.151Z,997.37
2023-10-27T00:51:56.871Z,997.38
2023-10-27T00:52:17.387Z,997.39
2023-10-27T00:52:37.996Z,997.39
2023-10-27T00:52:58.480Z,997.37
2023-10-27T00:53:19.069Z,997.37
2023-10-27T00:53:39.785Z,997.37
2023-10-27T00:54:00.262Z,997.38
2023-10-27T00:54:20.746Z,997.38
2023-10-27T00:54:41.784Z,997.36
2023-10-27T00:55:02.257Z,997.35
2023-10-27T00:55:22.798Z,997.36
2023-10-27T00:55:43.342Z,997.34
2023-10-27T00:56:03.897Z,997.33
2023-10-27T00:56:24.622Z,997.30
2023-10-27T00:56:45.098Z,997.31
2023-10-27T00:57:05.584Z,997.31
2023-10-27T00:57:26.587Z,997.31
2023-10-27T00:57:47.231Z,997.31
2023-10-27T00:58:08.021Z,997.30
2023-10-27T00:58:29.053Z,997.30
2023-10-27T00:58:49.186Z,997.29
2023-10-27T00:59:09.632Z,997.30
2023-10-27T00:59:31.591Z,997.28
2023-10-27T00:59:51.627Z,997.26
2023-10-27T01:00:12.154Z,997.24
2023-10-27T01:00:32.782Z,997.23
2023-10-27T01:00:54.053Z,997.24
2023-10-27T01:01:14.080Z,997.22
2023-10-27T01:01:34.612Z,997.23
2023-10-27T01:01:55.100Z,997.21
2023-10-27T01:02:16.027Z,997.19
2023-10-27T01:02:37.165Z,997.20
2023-10-27T01:02:57.670Z,997.19
2023-10-27T01:03:18.193Z,997.18
2023-10-27T01:03:38.743Z,997.18
2023-10-27T01:03:59.394Z,997.17
2023-10-27T01:04:20.007Z,997.16
2023-10-27T01:04:40.646Z,997.16
2023-10-27T01:05:01.346Z,997.14
2023-10-27T01:05:21.866Z,997.13
2023-10-27T01:05:43.029Z,997.12
2023-10-27T01:06:03.549Z,997.12
2023-10-27T01:06:24.117Z,997.12
2023-10-27T01:06:44.660Z,997.10
2023-10-27T01:07:05.355Z,997.11
2023-10-27T01:07:25.890Z,997.11
2023-10-27T01:07:46.607Z,997.12
2023-10-27T01:08:07.310Z,997.15
2023-10-27T01:08:27.765Z,997.16
2023-10-27T01:08:48.277Z,997.16
2023-10-27T01:09:08.821Z,997.18
2023-10-27T01:09:29.837Z,997.18
2023-10-27T01:09:50.443Z,997.17
2023-10-27T01:10:10.939Z,997.17
2023-10-27T01:10:31.626Z,997.19
2023-10-27T01:10:52.194Z,997.20
2023-10-27T01:11:12.632Z,997.18
2023-10-27T01:11:33.701Z,997.20
2023-10-27T01:11:54.152Z,997.18
2023-10-27T01:12:15.787Z,997.16
2023-10-27T01:12:35.854Z,997.16
2023-10-27T01:12:56.402Z,997.15
2023-10-27T01:13:16.864Z,997.16
2023-10-27T01:13:37.656Z,997.16
2023-10-27T01:13:58.143Z,997.16
2023-10-27T01:14:18.557Z,997.15
2023-10-27T01:14:39.645Z,997.15
2023-10-27T01:15:00.075Z,997.13
2023-10-27T01:15:20.860Z,997.13
2023-10-27T01:15:41.384Z,997.13
2023-10-27T01:16:02.576Z,997.12
2023-10-27T01:16:23.317Z,997.11
2023-10-27T01:16:43.749Z,997.11
2023-10-27T01:17:04.749Z,997.10
2023-10-27T01:17:25.520Z,997.09
2023-10-27T01:17:46.121Z,997.08
2023-10-27T01:18:06.670Z,997.09
2023-10-27T01:18:27.182Z,997.09
2023-10-27T01:18:47.718Z,997.08
2023-10-27T01:19:08.516Z,997.08
2023-10-27T01:19:29.347Z,997.08
2023-10-27T01:19:51.679Z,997.06
2023-10-27T01:20:11.130Z,997.07
2023-10-27T01:20:31.969Z,997.06
2023-10-27T01:20:52.721Z,997.05
2023-10-27T01:21:13.344Z,997.04
2023-10-27T01:21:33.957Z,997.07
2023-10-27T01:21:54.486Z,997.06
2023-10-27T01:22:15.539Z,997.06
2023-10-27T01:22:36.113Z,997.09
2023-10-27T01:22:57.074Z,997.09
2023-10-27T01:23:17.492Z,997.09
2023-10-27T01:23:38.661Z,997.07
2023-10-27T01:23:59.139Z,997.08
2023-10-27T01:24:19.909Z,997.09
2023-10-27T01:24:40.413Z,997.10
2023-10-27T01:25:01.135Z,997.09
2023-10-27T01:25:21.653Z,997.10
2023-10-27T01:25:42.236Z,997.09
2023-10-27T01:26:02.823Z,997.09
2023-10-27T01:26:23.415Z,997.11
2023-10-27T01:26:43.963Z,997.11
2023-10-27T01:27:04.756Z,997.11
2023-10-27T01:27:25.313Z,997.12
2023-10-27T01:27:45.855Z,997.13
2023-10-27T01:28:06.460Z,997.13
2023-10-27T01:28:27.034Z,997.13
2023-10-27T01:28:47.511Z,997.14
2023-10-27T01:29:08.157Z,997.12
2023-10-27T01:29:28.593Z,997.13
2023-10-27T01:29:49.627Z,997.14
2023-10-27T01:30:10.672Z,997.14
2023-10-27T01:30:30.690Z,997.15
2023-10-27T01:30:51.327Z,997.15
2023-10-27T01:31:11.909Z,997.15
2023-10-27T01:31:32.536Z,997.14
2023-10-27T01:31:52.920Z,997.12
2023-10-27T01:32:13.905Z,997.11
2023-10-27T01:32:34.911Z,997.13
2023-10-27T01:32:55.858Z,997.13
2023-10-27T01:33:16.784Z,997.14
2023-10-27T01:33:37.986Z,997.14
2023-10-27T01:33:58.634Z,997.13
2023-10-27T01:34:19.209Z,997.14
2023-10-27T01:34:39.764Z,997.13
2023-10-27T01:35:00.494Z,997.14
2023-10-27T01:35:20.915Z,997.15
2023-10-27T01:35:41.968Z,997.14
2023-10-27T01:36:02.529Z,997.16
2023-10-27T01:36:23.081Z,997.16
2023-10-27T01:36:43.613Z,997.18
2023-10-27T01:37:04.589Z,997.17
2023-10-27T01:37:25.071Z,997.20
2023-10-27T01:37:46.017Z,997.21
2023-10-27T01:38:06.974Z,997.22
2023-10-27T01:38:27.978Z,997.21
2023-10-27T01:38:48.965Z,997.24
2023-10-27T01:39:09.977Z,997.26
2023-10-27T01:39:30.533Z,997.26
2023-10-27T01:39:51.192Z,997.25
2023-10-27T01:40:11.693Z,997.24
2023-10-27T01:40:32.084Z,997.24
2023-10-27T01:40:53.112Z,997.25
2023-10-27T01:41:13.638Z,997.26
2023-10-27T01:41:34.163Z,997.26
2023-10-27T01:41:54.592Z,997.26
2023-10-27T01:42:15.608Z,997.26
2023-10-27T01:42:36.238Z,997.27
2023-10-27T01:42:56.780Z,997.29
2023-10-27T01:43:17.330Z,997.28
2023-10-27T01:43:37.785Z,997.28
2023-10-27T01:43:58.728Z,997.28
2023-10-27T01:44:19.813Z,997.28
2023-10-27T01:44:40.274Z,997.28
2023-10-27T01:45:01.311Z,997.28
2023-10-27T01:45:22.277Z,997.27
2023-10-27T01:45:43.337Z,997.28
2023-10-27T01:46:03.938Z,997.27
2023-10-27T01:46:24.465Z,997.26
2023-10-27T01:46:45.033Z,997.26
2023-10-27T01:47:05.480Z,997.26
2023-10-27T01:47:26.052Z,997.26
2023-10-27T01:47:46.530Z,997.26
2023-10-27T01:48:07.608Z,997.25
2023-10-27T01:48:28.194Z,997.25
2023-10-27T01:48:48.673Z,997.23
2023-10-27T01:49:09.777Z,997.22
2023-10-27T01:49:30.400Z,997.23
2023-10-27T01:49:50.933Z,997.24
2023-10-27T01:50:11.391Z,997.27
2023-10-27T01:50:32.471Z,997.28
2023-10-27T01:50:52.964Z,997.28
2023-10-27T01:51:14.029Z,997.31
2023-10-27T01:51:34.547Z,997.31
2023-10-27T01:51:55.081Z,997.32
2023-10-27T01:52:15.573Z,997.32
2023-10-27T01:52:36.540Z,997.31
2023-10-27T01:52:57.026Z,997.30
2023-10-27T01:53:18.025Z,997.28
2023-10-27T01:53:39.023Z,997.28
2023-10-27T01:53:59.478Z,997.28
2023-10-27T01:54:20.469Z,997.25
2023-10-27T01:54:41.458Z,997.24
2023-10-27T01:55:02.499Z,997.22
2023-10-27T01:55:23.021Z,997.21
2023-10-27T01:55:43.588Z,997.21
2023-10-27T01:56:04.149Z,997.21
2023-10-27T01:56:24.618Z,997.21
2023-10-27T01:56:45.586Z,997.23
2023-10-27T01:57:06.510Z,997.23
2023-10-27T01:57:27.490Z,997.24
2023-10-27T01:57:48.002Z,997.25
2023-10-27T01:58:08.976Z,997.25
2023-10-27T01:58:29.991Z,997.25
2023-10-27T01:58:50.519Z,997.25
2023-10-27T01:59:10.962Z,997.24
2023-10-27T01:59:31.941Z,997.25
2023-10-27T01:59:52.924Z,997.25
2023-10-27T02:00:13.893Z,997.25
2023-10-27T02:00:35.063Z,997.27
2023-10-27T02:00:55.917Z,997.26
2023-10-27T02:01:16.623Z,997.28
2023-10-27T02:01:37.068Z,997.29
2023-10-27T02:01:58.062Z,997.31
2023-10-27T02:02:18.536Z,997.31
2023-10-27T02:02:39.472Z,997.32
2023-10-27T02:03:00.458Z,997.33
2023-10-27T02:03:21.400Z,997.33
2023-10-27T02:04:03.396Z,997.34
2023-10-27T02:04:23.881Z,997.33
2023-10-27T02:04:44.446Z,997.35
2023-10-27T02:05:05.126Z,997.36
2023-10-27T02:05:25.581Z,997.37
2023-10-27T02:05:46.179Z,997.36
2023-10-27T02:06:06.618Z,997.35
2023-10-27T02:06:27.701Z,997.34
2023-10-27T02:06:48.138Z,997.35
2023-10-27T02:07:09.210Z,997.34
2023-10-27T02:07:29.654Z,997.34
2023-10-27T02:07:50.639Z,997.36
2023-10-27T02:08:11.587Z,997.35
2023-10-27T02:08:32.150Z,997.36
2023-10-27T02:08:52.652Z,997.36
2023-10-27T02:09:13.697Z,997.36
2023-10-27T02:09:34.273Z,997.37
2023-10-27T02:09:54.743Z,997.39
2023-10-27T02:10:15.307Z,997.39
2023-10-27T02:10:35.793Z,997.37
2023-10-27T02:10:56.748Z,997.37
2023-10-27T02:11:17.355Z,997.38
2023-10-27T02:11:37.809Z,997.39
2023-10-27T02:11:58.872Z,997.38
2023-10-27T02:12:19.306Z,997.40
2023-10-27T02:12:40.309Z,997.38
2023-10-27T02:13:01.312Z,997.38
2023-10-27T02:13:21.843Z,997.38
2023-10-27T02:13:42.296Z,997.37
2023-10-27T02:14:03.341Z,997.35
2023-10-27T02:14:23.897Z,997.36
2023-10-27T02:14:44.421Z,997.35
2023-10-27T02:15:04.936Z,997.37
2023-10-27T02:15:25.987Z,997.38
2023-10-27T02:15:46.412Z,997.37
2023-10-27T02:16:07.543Z,997.37
2023-10-27T02:16:28.016Z,997.38
2023-10-27T02:16:49.029Z,997.38
2023-10-27T02:17:09.539Z,997.39
2023-10-27T02:17:30.511Z,997.40
2023-10-27T02:17:51.476Z,997.41
2023-10-27T02:18:12.493Z,997.42
2023-10-27T02:18:33.027Z,997.42
2023-10-27T02:18:53.528Z,997.41
2023-10-27T02:19:14.224Z,997.41
2023-10-27T02:19:35.192Z,997.40
2023-10-27T02:19:55.771Z,997.42
2023-10-27T02:20:16.492Z,997.42
2023-10-27T02:20:36.936Z,997.43
2023-10-27T02:20:57.902Z,997.43
2023-10-27T02:21:19.042Z,997.41
2023-10-27T02:21:39.601Z,997.42
2023-10-27T02:22:00.219Z,997.42
2023-10-27T02:22:20.763Z,997.42
2023-10-27T02:22:41.142Z,997.41
2023-10-27T02:23:02.101Z,997.41
2023-10-27T02:23:23.223Z,997.41
2023-10-27T02:23:43.712Z,997.42
2023-10-27T02:24:04.177Z,997.42
2023-10-27T02:24:25.135Z,997.43
2023-10-27T02:24:46.393Z,997.43
2023-10-27T02:25:06.899Z,997.44
2023-10-27T02:25:27.590Z,997.44
2023-10-27T02:25:47.983Z,997.43
2023-10-27T02:26:09.174Z,997.45
2023-10-27T02:26:29.677Z,997.46
2023-10-27T02:26:50.240Z,997.46
2023-10-27T02:27:10.714Z,997.44
2023-10-27T02:27:32.013Z,997.45
2023-10-27T02:27:52.537Z,997.44
2023-10-27T02:28:13.022Z,997.44
2023-10-27T02:28:33.541Z,997.44
2023-10-27T02:28:54.565Z,997.44
2023-10-27T02:29:15.060Z,997.44
2023-10-27T02:29:35.604Z,997.43
2023-10-27T02:29:56.316Z,997.43
2023-10-27T02:30:16.866Z,997.41
2023-10-27T02:30:37.455Z,997.41
2023-10-27T02:30:57.988Z,997.38
2023-10-27T02:31:18.649Z,997.39
2023-10-27T02:31:39.108Z,997.39
2023-10-27T02:32:00.266Z,997.40
2023-10-27T02:32:20.698Z,997.37
2023-10-27T02:32:41.814Z,997.38
2023-10-27T02:33:02.418Z,997.39
2023-10-27T02:33:23.160Z,997.40
2023-10-27T02:33:43.786Z,997.41
2023-10-27T02:34:04.400Z,997.40
2023-10-27T02:34:24.862Z,997.39
2023-10-27T02:34:45.829Z,997.39
2023-10-27T02:35:06.920Z,997.38
2023-10-27T02:35:27.527Z,997.37
2023-10-27T02:35:48.235Z,997.35
2023-10-27T02:36:08.814Z,997.35
2023-10-27T02:36:29.431Z,997.35
2023-10-27T02:36:49.998Z,997.34
2023-10-27T02:37:10.538Z,997.33
2023-10-27T02:37:31.145Z,997.32
2023-10-27T02:37:51.645Z,997.32
2023-10-27T02:38:12.672Z,997.30
2023-10-27T02:38:33.205Z,997.29
2023-10-27T02:38:53.668Z,997.29
2023-10-27T02:39:14.682Z,997.29
2023-10-27T02:39:35.162Z,997.28
2023-10-27T02:39:56.547Z,997.28
2023-10-27T02:40:17.204Z,997.29
2023-10-27T02:40:39.887Z,997.30
2023-10-27T02:40:58.830Z,997.29
2023-10-27T02:41:19.294Z,997.29
2023-10-27T02:41:39.807Z,997.28
2023-10-27T02:42:00.740Z,997.29
2023-10-27T02:42:22.012Z,997.29
2023-10-27T02:42:42.782Z,997.29
2023-10-27T02:43:03.461Z,997.30
2023-10-27T02:43:24.037Z,997.30
2023-10-27T02:43:44.604Z,997.29
2023-10-27T02:44:05.067Z,997.28
2023-10-27T02:44:26.090Z,997.27
2023-10-27T02:44:46.559Z,997.28
2023-10-27T02:45:07.077Z,997.27
2023-10-27T02:45:27.562Z,997.27
2023-10-27T02:45:48.557Z,997.29
2023-10-27T02:46:09.771Z,997.28
2023-10-27T02:46:30.414Z,997.28
2023-10-27T02:46:50.954Z,997.30
2023-10-27T02:47:11.403Z,997.29
2023-10-27T02:47:32.391Z,997.28
2023-10-27T02:47:52.887Z,997.28
2023-10-27T02:48:13.974Z,997.29
2023-10-27T02:48:34.508Z,997.28
2023-10-27T02:48:55.072Z,997.27
2023-10-27T02:49:15.536Z,997.28
2023-10-27T02:49:36.476Z,997.27
2023-10-27T02:49:57.412Z,997.28
2023-10-27T02:50:18.373Z,997.29
2023-10-27T02:50:39.399Z,997.27
2023-10-27T02:51:00.006Z,997.28
2023-10-27T02:51:20.479Z,997.27
2023-10-27T02:51:41.045Z,997.27
2023-10-27T02:52:01.560Z,997.24
2023-10-27T02:52:22.524Z,997.23
2023-10-27T02:52:43.608Z,997.23
2023-10-27T02:53:04.083Z,997.21
2023-10-27T02:53:25.084Z,997.19
2023-10-27T02:53:46.051Z,997.19
2023-10-27T02:54:07.055Z,997.18
2023-10-27T02:54:28.091Z,997.18
2023-10-27T02:54:48.575Z,997.17
2023-10-27T02:55:09.703Z,997.16
2023-10-27T02:55:30.257Z,997.15
2023-10-27T02:55:50.740Z,997.17
2023-10-27T02:56:11.223Z,997.17
2023-10-27T02:56:32.207Z,997.17
2023-10-27T02:56:53.267Z,997.16
2023-10-27T02:57:13.797Z,997.16
2023-10-27T02:57:34.260Z,997.16
2023-10-27T02:57:55.306Z,997.17
2023-10-27T02:58:15.771Z,997.16
2023-10-27T02:58:36.757Z,997.15
2023-10-27T02:58:57.263Z,997.14
2023-10-27T02:59:18.239Z,997.15
2023-10-27T02:59:39.305Z,997.14
2023-10-27T02:59:59.872Z,997.14
2023-10-27T03:00:20.412Z,997.15
2023-10-27T03:00:40.880Z,997.14
2023-10-27T03:01:01.911Z,997.13
2023-10-27T03:01:22.290Z,997.11
2023-10-27T03:01:43.320Z,997.11
2023-10-27T03:02:04.276Z,997.12
2023-10-27T03:02:24.763Z,997.11
2023-10-27T03:02:45.750Z,997.10
2023-10-27T03:03:06.708Z,997.10
2023-10-27T03:03:27.669Z,997.09
2023-10-27T03:03:48.676Z,997.10
2023-10-27T03:04:09.725Z,997.08
2023-10-27T03:04:30.270Z,997.08
2023-10-27T03:04:50.766Z,997.08
2023-10-27T03:05:11.370Z,997.09
2023-10-27T03:05:31.925Z,997.07
2023-10-27T03:05:52.426Z,997.07
2023-10-27T03:06:13.089Z,997.06
2023-10-27T03:06:33.706Z,997.05
2023-10-27T03:06:54.256Z,997.05
2023-10-27T03:07:15.004Z,997.04
2023-10-27T03:07:35.533Z,997.04
2023-10-27T03:07:56.187Z,997.02
2023-10-27T03:08:16.748Z,997.00
2023-10-27T03:08:37.483Z,997.01
2023-10-27T03:08:57.960Z,997.02
2023-10-27T03:09:19.266Z,996.98
2023-10-27T03:09:40.403Z,997.00
2023-10-27T03:10:02.399Z,997.00
2023-10-27T03:10:21.159Z,996.99
2023-10-27T03:10:41.932Z,997.00
2023-10-27T03:11:02.770Z,997.00
2023-10-27T03:11:23.712Z,997.03
2023-10-27T03:11:44.415Z,997.03
2023-10-27T03:12:05.081Z,997.03
2023-10-27T03:12:25.641Z,997.04
2023-10-27T03:12:46.208Z,997.04
2023-10-27T03:13:06.969Z,997.04
2023-10-27T03:13:27.804Z,997.03
2023-10-27T03:13:48.626Z,997.06
2023-10-27T03:14:09.131Z,997.07
2023-10-27T03:14:29.643Z,997.07
2023-10-27T03:14:50.169Z,997.07
2023-10-27T03:15:10.698Z,997.07
2023-10-27T03:15:31.726Z,997.08
2023-10-27T03:15:52.351Z,997.08
2023-10-27T03:16:12.930Z,997.06
2023-10-27T03:16:33.466Z,997.06
2023-10-27T03:16:54.066Z,997.06
2023-10-27T03:17:14.730Z,997.07
2023-10-27T03:17:35.253Z,997.08
2023-10-27T03:17:55.766Z,997.08
2023-10-27T03:18:16.386Z,997.08
2023-10-27T03:18:36.929Z,997.08
2023-10-27T03:18:57.608Z,997.07
2023-10-27T03:19:18.265Z,997.05
2023-10-27T03:19:39.152Z,997.05
2023-10-27T03:19:59.799Z,997.04
2023-10-27T03:20:20.448Z,997.04
2023-10-27T03:20:41.000Z,997.03
2023-10-27T03:21:01.479Z,997.03
2023-10-27T03:21:22.044Z,997.04
2023-10-27T03:21:42.495Z,997.03
2023-10-27T03:22:03.534Z,997.05
2023-10-27T03:22:24.101Z,997.03
2023-10-27T03:22:44.655Z,997.03
2023-10-27T03:23:05.208Z,997.03
2023-10-27T03:23:25.684Z,997.04
2023-10-27T03:23:46.215Z,997.04
2023-10-27T03:24:06.739Z,997.05
2023-10-27T03:24:27.818Z,997.04
2023-10-27T03:24:48.499Z,997.04
2023-10-27T03:25:09.241Z,997.01
2023-10-27T03:25:29.731Z,997.03
2023-10-27T03:25:50.852Z,997.04
2023-10-27T03:26:11.511Z,997.02
2023-10-27T03:26:32.181Z,997.03
2023-10-27T03:26:52.774Z,997.03
2023-10-27T03:27:13.410Z,997.03
2023-10-27T03:27:33.981Z,997.03
2023-10-27T03:27:54.348Z,997.03
2023-10-27T03:28:15.425Z,997.02
2023-10-27T03:28:35.967Z,997.02
2023-10-27T03:28:56.526Z,997.01
2023-10-27T03:29:17.138Z,997.00
2023-10-27T03:29:37.773Z,996.99
2023-10-27T03:29:58.205Z,996.99
2023-10-27T03:30:19.208Z,996.97
2023-10-27T03:30:40.228Z,996.97
2023-10-27T03:31:00.757Z,996.97
2023-10-27T03:31:21.429Z,996.97
2023-10-27T03:31:41.920Z,996.98
2023-10-27T03:32:02.531Z,996.96
2023-10-27T03:32:22.986Z,996.96
2023-10-27T03:32:43.684Z,996.96
2023-10-27T03:33:04.124Z,996.96
2023-10-27T03:33:25.123Z,996.95
2023-10-27T03:33:46.137Z,996.95
2023-10-27T03:34:06.679Z,996.93
2023-10-27T03:34:27.305Z,996.93
2023-10-27T03:34:47.885Z,996.90
2023-10-27T03:35:08.560Z,996.86
2023-10-27T03:35:29.020Z,996.83
2023-10-27T03:35:50.057Z,996.81
2023-10-27T03:36:10.539Z,996.81
2023-10-27T03:36:31.563Z,996.81
2023-10-27T03:36:51.987Z,996.80
2023-10-27T03:37:12.995Z,996.80
2023-10-27T03:37:33.959Z,996.81
2023-10-27T03:37:55.022Z,996.82
2023-10-27T03:38:15.461Z,996.82
2023-10-27T03:38:36.403Z,996.83
2023-10-27T03:38:57.416Z,996.83
2023-10-27T03:39:18.428Z,996.83
2023-10-27T03:39:38.937Z,996.82
2023-10-27T03:40:00.052Z,996.82
2023-10-27T03:40:20.643Z,996.82
2023-10-27T03:40:41.190Z,996.82
2023-10-27T03:41:01.741Z,996.83
2023-10-27T03:41:22.366Z,996.82
2023-10-27T03:41:42.829Z,996.83
2023-10-27T03:42:03.321Z,996.84
2023-10-27T03:42:24.233Z,996.85
2023-10-27T03:42:45.242Z,996.86
2023-10-27T03:43:06.367Z,996.87
2023-10-27T03:43:26.933Z,996.89
2023-10-27T03:43:47.436Z,996.91
2023-10-27T03:44:07.985Z,996.90
2023-10-27T03:44:28.485Z,996.90
2023-10-27T03:44:48.960Z,996.90
2023-10-27T03:45:09.509Z,996.90
2023-10-27T03:45:30.042Z,996.89
2023-10-27T03:45:50.598Z,996.89
2023-10-27T03:46:11.224Z,996.87
2023-10-27T03:46:31.714Z,996.88
2023-10-27T03:46:52.692Z,996.89
2023-10-27T03:47:13.283Z,996.86
2023-10-27T03:47:33.804Z,996.87
2023-10-27T03:47:54.344Z,996.88
2023-10-27T03:48:15.025Z,996.88
2023-10-27T03:48:35.531Z,996.88
2023-10-27T03:48:56.059Z,996.89
2023-10-27T03:49:16.529Z,996.89
2023-10-27T03:49:37.504Z,996.92
2023-10-27T03:49:58.484Z,996.91
2023-10-27T03:50:19.001Z,996.92
2023-10-27T03:50:39.423Z,996.94
2023-10-27T03:51:00.455Z,996.94
2023-10-27T03:51:20.895Z,996.95
2023-10-27T03:51:41.999Z,996.96
2023-10-27T03:52:02.539Z,996.96
2023-10-27T03:52:23.102Z,996.98
2023-10-27T03:52:43.638Z,996.97
2023-10-27T03:53:04.223Z,996.97
2023-10-27T03:53:24.782Z,996.99
2023-10-27T03:53:45.255Z,996.96
2023-10-27T03:54:06.215Z,996.96
2023-10-27T03:54:27.248Z,996.95
2023-10-27T03:54:47.731Z,996.94
2023-10-27T03:55:08.919Z,996.96
2023-10-27T03:55:29.473Z,996.96
2023-10-27T03:55:50.485Z,996.97
2023-10-27T03:56:10.927Z,996.95
2023-10-27T03:56:31.872Z,996.94
2023-10-27T03:56:52.919Z,996.95
2023-10-27T03:57:13.402Z,996.94
2023-10-27T03:57:34.450Z,996.95
2023-10-27T03:57:54.952Z,996.95
2023-10-27T03:58:15.896Z,996.96
2023-10-27T03:58:47.528Z,996.98
2023-10-27T03:58:58.805Z,996.99
2023-10-27T03:59:18.267Z,996.99
2023-10-27T03:59:39.195Z,997.00
2023-10-27T04:00:00.171Z,996.98
2023-10-27T04:00:21.142Z,996.97
2023-10-27T04:00:42.091Z,996.98
2023-10-27T04:01:03.058Z,996.98
2023-10-27T04:01:24.062Z,996.98
2023-10-27T04:01:44.987Z,996.98
2023-10-27T04:02:05.936Z,996.96
2023-10-27T04:02:26.974Z,996.95
2023-10-27T04:02:47.560Z,996.96
2023-10-27T04:03:08.066Z,996.95
2023-10-27T04:03:29.072Z,996.93
2023-10-27T04:03:49.615Z,996.91
2023-10-27T04:04:10.165Z,996.91
2023-10-27T04:04:30.794Z,996.94
2023-10-27T04:04:51.366Z,996.93
2023-10-27T04:05:11.986Z,996.92
2023-10-27T04:05:32.496Z,996.92
2023-10-27T04:05:53.430Z,996.91
2023-10-27T04:06:14.385Z,996.91
2023-10-27T04:06:35.426Z,996.91
2023-10-27T04:06:55.924Z,996.88
2023-10-27T04:07:17.005Z,996.85
2023-10-27T04:07:37.534Z,996.87
2023-10-27T04:07:57.990Z,996.87
2023-10-27T04:08:19.020Z,996.86
2023-10-27T04:08:39.498Z,996.83
2023-10-27T04:08:59.975Z,996.82
2023-10-27T04:09:20.983Z,996.80
2023-10-27T04:09:41.507Z,996.80
2023-10-27T04:10:02.127Z,996.80
2023-10-27T04:10:22.620Z,996.78
2023-10-27T04:10:43.526Z,996.79
2023-10-27T04:11:04.488Z,996.80
2023-10-27T04:11:25.510Z,996.81
2023-10-27T04:11:46.460Z,996.80
2023-10-27T04:12:07.458Z,996.81
2023-10-27T04:12:28.469Z,996.80
2023-10-27T04:12:49.376Z,996.82
2023-10-27T04:13:10.422Z,996.81
2023-10-27T04:13:30.879Z,996.81
2023-10-27T04:13:51.834Z,996.82
2023-10-27T04:14:12.864Z,996.81
2023-10-27T04:14:33.371Z,996.81
2023-10-27T04:14:54.344Z,996.81
2023-10-27T04:15:14.906Z,996.83
2023-10-27T04:15:35.452Z,996.83
2023-10-27T04:15:55.978Z,996.81
2023-10-27T04:16:16.519Z,996.83
2023-10-27T04:16:37.004Z,996.84
2023-10-27T04:16:57.470Z,996.84
2023-10-27T04:17:18.418Z,996.84
2023-10-27T04:17:39.874Z,996.82
2023-10-27T04:18:00.411Z,996.83
2023-10-27T04:18:20.983Z,996.83
2023-10-27T04:18:41.538Z,996.81